createdAt,value
2022-12-06T00:04:05.240Z,24.5
2022-12-06T00:09:11.417Z,24.5
2022-12-06T00:14:17.553Z,24.5
2022-12-06T00:19:23.729Z,24.5
2022-12-06T00:24:28.932Z,24.5
2022-12-06T00:29:35.083Z,24.5
2022-12-06T00:34:41.263Z,24.5
2022-12-06T00:39:47.413Z,24.5
2022-12-06T00:44:53.557Z,25
2022-12-06T00:49:59.726Z,25
2022-12-06T00:55:05.887Z,25
2022-12-06T01:00:12.037Z,24.5
2022-12-06T01:05:18.205Z,25
2022-12-06T01:10:24.364Z,24.5
2022-12-06T01:15:30.529Z,24.5
2022-12-06T01:20:36.684Z,24.5
2022-12-06T01:25:42.851Z,24.5
2022-12-06T01:30:48.050Z,24.5
2022-12-06T01:35:54.206Z,25
2022-12-06T01:41:00.362Z,25
2022-12-06T01:46:06.536Z,25
2022-12-06T01:51:12.674Z,24.5
2022-12-06T01:56:18.861Z,25
2022-12-06T02:01:24.991Z,25
2022-12-06T02:06:31.153Z,25
2022-12-06T02:11:37.316Z,25
2022-12-06T02:16:43.478Z,25
2022-12-06T02:21:49.626Z,25
2022-12-06T02:26:55.784Z,25
2022-12-06T02:32:01.932Z,25
2022-12-06T02:37:07.140Z,25
2022-12-06T02:42:13.306Z,25
2022-12-06T02:47:19.470Z,24.5
2022-12-06T02:52:25.635Z,25
2022-12-06T02:57:31.779Z,25
2022-12-06T03:02:37.935Z,25
2022-12-06T03:07:44.107Z,25
2022-12-06T03:12:50.254Z,25
2022-12-06T03:17:56.406Z,25
2022-12-06T03:23:02.571Z,25
2022-12-06T03:28:08.717Z,25
2022-12-06T03:33:14.899Z,25
2022-12-06T03:38:21.048Z,25
2022-12-06T03:43:26.264Z,25
2022-12-06T03:48:32.405Z,25
2022-12-06T03:53:38.565Z,25
2022-12-06T03:58:44.729Z,25
2022-12-06T04:03:50.877Z,25
2022-12-06T04:08:57.051Z,25
2022-12-06T04:14:03.207Z,25
2022-12-06T04:19:09.356Z,25
2022-12-06T04:24:15.519Z,25
2022-12-06T04:29:21.677Z,25
2022-12-06T04:34:27.931Z,25
2022-12-06T04:39:33.993Z,25
2022-12-06T04:44:40.153Z,25
2022-12-06T04:49:45.388Z,25
2022-12-06T04:54:51.542Z,25
2022-12-06T04:59:57.686Z,25
2022-12-06T05:05:03.828Z,25
2022-12-06T05:10:09.983Z,25
2022-12-06T05:15:16.142Z,25
2022-12-06T05:20:22.295Z,25
2022-12-06T05:25:28.472Z,25
2022-12-06T05:30:34.627Z,25
2022-12-06T05:35:40.796Z,25
2022-12-06T05:40:46.940Z,25
2022-12-06T05:45:53.115Z,25
2022-12-06T05:50:59.254Z,25
2022-12-06T05:56:04.476Z,25
2022-12-06T06:01:10.780Z,25
2022-12-06T06:06:16.788Z,25
2022-12-06T06:11:22.962Z,25
2022-12-06T06:16:29.104Z,25
2022-12-06T06:21:35.247Z,25
2022-12-06T06:26:41.410Z,25
2022-12-06T06:31:47.573Z,25
2022-12-06T06:36:53.729Z,25
2022-12-06T06:41:59.886Z,25
2022-12-06T06:47:06.059Z,25
2022-12-06T06:52:12.204Z,25
2022-12-06T06:57:18.364Z,25
2022-12-06T07:02:23.584Z,25
2022-12-06T07:07:29.753Z,25
2022-12-06T07:12:35.877Z,25
2022-12-06T07:17:42.049Z,25
2022-12-06T07:22:49.279Z,25
2022-12-06T07:27:54.363Z,25
2022-12-06T07:33:00.524Z,25
2022-12-06T07:38:06.671Z,25
2022-12-06T07:43:12.838Z,25
2022-12-06T07:48:19.041Z,25.5
2022-12-06T07:53:25.226Z,25.5
2022-12-06T07:58:31.314Z,25.5
2022-12-06T08:03:37.459Z,26
2022-12-06T08:08:42.690Z,25.5
2022-12-06T08:13:48.837Z,26
2022-12-06T08:18:55.004Z,26
2022-12-06T08:24:01.146Z,26
2022-12-06T08:34:13.480Z,26
2022-12-06T08:39:19.630Z,26
2022-12-06T08:44:25.814Z,26
2022-12-06T08:49:31.981Z,26
2022-12-06T08:54:38.093Z,26
2022-12-06T08:59:44.271Z,25.5
2022-12-06T09:04:50.423Z,25.5
2022-12-06T09:09:56.607Z,26
2022-12-06T09:15:01.770Z,26
2022-12-06T09:20:07.929Z,25.5
2022-12-06T09:25:14.098Z,25.5
2022-12-06T09:30:20.246Z,25
2022-12-06T09:35:26.418Z,25.5
2022-12-06T09:40:32.568Z,25.5
2022-12-06T09:45:38.723Z,26
2022-12-06T09:50:44.906Z,25.5
2022-12-06T09:55:51.030Z,25.5
2022-12-06T10:00:57.193Z,25.5
2022-12-06T10:06:03.376Z,26
2022-12-06T10:11:09.534Z,26
2022-12-06T10:16:15.676Z,26
2022-12-06T10:21:20.900Z,26
2022-12-06T10:26:27.026Z,26
2022-12-06T10:31:33.212Z,26
2022-12-06T10:36:39.355Z,26
2022-12-06T10:41:45.529Z,26
2022-12-06T10:46:51.680Z,26
2022-12-06T10:51:57.839Z,26
2022-12-06T10:57:03.986Z,26
2022-12-06T11:02:10.141Z,26
2022-12-06T11:07:16.298Z,26
2022-12-06T11:12:22.461Z,26
2022-12-06T11:17:28.624Z,26
2022-12-06T11:22:34.800Z,26
2022-12-06T11:27:39.989Z,26
2022-12-06T11:32:46.155Z,26
2022-12-06T11:37:52.316Z,26
2022-12-06T11:42:58.470Z,26
2022-12-06T11:48:04.639Z,26
2022-12-06T11:53:10.785Z,26
2022-12-06T11:58:16.017Z,35.5
2022-12-06T12:03:22.178Z,36.5
2022-12-06T12:08:28.371Z,34
2022-12-06T12:13:34.478Z,31
2022-12-06T12:18:40.656Z,30
2022-12-06T12:23:46.804Z,29.5
2022-12-06T12:28:52.956Z,29.5
2022-12-06T12:33:59.119Z,29
2022-12-06T12:39:05.288Z,28.5
2022-12-06T12:44:11.448Z,28.5
2022-12-06T12:49:17.603Z,28.5
2022-12-06T12:54:23.754Z,28
2022-12-06T12:59:29.924Z,28
2022-12-06T13:04:35.118Z,28
2022-12-06T13:09:41.281Z,28
2022-12-06T13:14:47.465Z,27.5
2022-12-06T13:19:53.607Z,27.5
2022-12-06T13:24:59.764Z,27.5
2022-12-06T13:30:05.923Z,27.5
2022-12-06T13:35:12.077Z,27.5
2022-12-06T13:40:18.233Z,27.5
2022-12-06T13:45:24.388Z,27.5
2022-12-06T13:50:30.558Z,27.5
2022-12-06T13:55:36.705Z,27
2022-12-06T14:00:42.869Z,27
2022-12-06T14:10:54.236Z,27
2022-12-06T14:16:00.397Z,27
2022-12-06T14:21:06.550Z,27
2022-12-06T14:26:12.706Z,27
2022-12-06T14:31:18.860Z,27
2022-12-06T14:36:25.017Z,27
2022-12-06T14:41:31.181Z,27
2022-12-06T14:46:37.446Z,27
2022-12-06T14:51:43.495Z,27
2022-12-06T14:56:49.653Z,26.5
2022-12-06T15:01:55.895Z,27
2022-12-06T15:07:01.997Z,27
2022-12-06T15:12:08.138Z,26.5
2022-12-06T15:17:13.326Z,26.5
2022-12-06T15:22:19.496Z,27
2022-12-06T15:27:25.659Z,27
2022-12-06T15:32:31.843Z,27
2022-12-06T15:37:37.987Z,27
2022-12-06T15:42:44.131Z,27
2022-12-06T15:47:50.293Z,27
2022-12-06T15:52:56.453Z,27
2022-12-06T15:58:02.673Z,27
2022-12-06T16:03:08.773Z,27
2022-12-06T16:08:14.916Z,27
2022-12-06T16:13:21.089Z,27.5
2022-12-06T16:18:27.292Z,27
2022-12-06T16:23:32.451Z,27
2022-12-06T16:28:38.603Z,27
2022-12-06T16:33:44.765Z,27
2022-12-06T16:38:50.953Z,27
2022-12-06T16:43:57.091Z,27
2022-12-06T16:49:03.246Z,27
2022-12-06T16:54:09.393Z,27
2022-12-06T16:59:15.571Z,27
2022-12-06T17:04:21.708Z,27
2022-12-06T17:09:27.878Z,27
2022-12-06T17:14:34.020Z,27
2022-12-06T17:19:40.225Z,26.5
2022-12-06T17:24:46.335Z,26.5
2022-12-06T17:29:51.557Z,26.5
2022-12-06T17:34:57.711Z,26.5
2022-12-06T17:40:03.881Z,26.5
2022-12-06T17:45:10.153Z,26.5
2022-12-06T17:50:16.183Z,26.5
2022-12-06T17:55:22.360Z,26.5
2022-12-06T18:00:28.508Z,26.5
2022-12-06T18:05:34.784Z,26.5
2022-12-06T18:10:41.020Z,26
2022-12-06T18:15:47.116Z,26
2022-12-06T18:20:53.290Z,26
2022-12-06T18:25:59.425Z,26
2022-12-06T18:31:05.450Z,26
2022-12-06T18:36:10.796Z,26
2022-12-06T18:41:16.980Z,26
2022-12-06T18:46:23.088Z,26
2022-12-06T18:51:29.204Z,26
2022-12-06T18:56:35.417Z,26
2022-12-06T19:01:41.616Z,26
2022-12-06T19:06:47.815Z,26
2022-12-06T19:11:53.907Z,26
2022-12-06T19:17:00.001Z,26
2022-12-06T19:22:06.071Z,26
2022-12-06T19:27:12.398Z,26
2022-12-06T19:32:18.556Z,26
2022-12-06T19:37:24.727Z,25.5
2022-12-06T19:42:29.752Z,26
2022-12-06T19:47:36.039Z,26
2022-12-06T19:52:42.162Z,25.5
2022-12-06T19:57:48.263Z,25.5
2022-12-06T20:02:54.443Z,26
2022-12-06T20:13:06.781Z,25.5
2022-12-06T20:18:13.043Z,26
2022-12-06T20:23:19.072Z,25.5
2022-12-06T20:28:25.327Z,25.5
2022-12-06T20:33:31.527Z,25.5
2022-12-06T20:38:37.603Z,25.5
2022-12-06T20:43:43.656Z,26
2022-12-06T20:48:49.075Z,25.5
2022-12-06T20:53:55.040Z,25.5
2022-12-06T20:59:01.172Z,25.5
2022-12-06T21:04:07.418Z,25
2022-12-06T21:09:13.643Z,25
2022-12-06T21:14:19.879Z,25
2022-12-06T21:19:25.933Z,25
2022-12-06T21:24:32.056Z,25
2022-12-06T21:29:38.274Z,25
2022-12-06T21:34:44.286Z,25.5
2022-12-06T21:39:50.487Z,25
2022-12-06T21:44:56.605Z,25
2022-12-06T21:50:02.850Z,25
2022-12-06T21:55:08.068Z,25
2022-12-06T22:00:14.230Z,25
2022-12-06T22:05:20.424Z,25
2022-12-06T22:10:26.582Z,25
2022-12-06T22:15:32.734Z,25
2022-12-06T22:20:38.893Z,25
2022-12-06T22:25:45.011Z,25
2022-12-06T22:30:51.225Z,25
2022-12-06T22:35:57.258Z,25
2022-12-06T22:41:03.480Z,25
2022-12-06T22:46:09.597Z,25
2022-12-06T22:51:15.914Z,25
2022-12-06T22:56:21.969Z,25
2022-12-06T23:01:27.175Z,25
2022-12-06T23:06:33.265Z,25
2022-12-06T23:11:39.587Z,25
2022-12-06T23:16:45.581Z,25
2022-12-06T23:21:51.745Z,25
2022-12-06T23:26:57.893Z,25
2022-12-06T23:32:04.193Z,25
2022-12-06T23:37:10.297Z,25
2022-12-06T23:42:16.459Z,25
2022-12-06T23:47:22.560Z,25
2022-12-06T23:52:28.755Z,25
2022-12-06T23:57:34.860Z,25
